.
WxDataArchive / Data Records for 2010-12-18
2010-12-17 December 2010 2010-12-19

Data Records for Saturday, 18 December 2010

Time	Temp	Chill	HIndex	Humid	Dewpt	 Wind 	HiWind	WindDir	Rain 	Barom 
-----	----	-----	------	-----	-----	------	------	-------	-----	----- 
00:00	14.6	14.6	14.6	75	8.1	1	5	248	0.00	30.144 
00:05	14.4	14.4	14.4	75	8.0	2	5	248	0.00	30.144 
00:10	14.4	14.4	14.4	74	7.7	2	7	248	0.00	30.144 
00:15	14.4	14.4	14.4	74	7.7	1	4	248	0.00	30.143 
00:20	14.3	14.3	14.3	74	7.6	2	5	248	0.00	30.143 
00:25	14.3	14.3	14.3	74	7.6	1	5	248	0.00	30.143 
00:30	14.3	14.3	14.3	73	7.3	2	4	248	0.00	30.141 
00:35	14.3	14.3	14.3	73	7.3	2	4	248	0.00	30.141 
00:40	14.3	14.3	14.3	73	7.3	2	5	248	0.00	30.141 
00:45	14.3	14.3	14.3	73	7.3	2	5	225	0.00	30.141 
00:50	14.3	14.3	14.3	72	7.0	2	7	248	0.00	30.141 
00:55	14.3	14.3	14.3	72	7.0	2	5	248	0.00	30.141 
01:00	14.1	14.1	14.1	72	6.8	1	6	248	0.00	30.139 
01:05	14.0	14.0	14.0	72	6.7	1	6	248	0.00	30.139 
01:10	14.0	14.0	14.0	72	6.7	1	5	248	0.00	30.139 
01:15	14.0	14.0	14.0	72	6.7	2	6	248	0.00	30.137 
01:20	14.0	14.0	14.0	72	6.7	2	6	248	0.00	30.137 
01:25	14.0	14.0	14.0	72	6.7	2	7	248	0.00	30.137 
01:30	13.8	13.8	13.8	72	6.5	1	5	248	0.00	30.134 
01:35	13.8	13.8	13.8	72	6.5	1	5	248	0.00	30.134 
01:40	13.8	13.8	13.8	72	6.5	1	4	248	0.00	30.134 
01:45	13.6	13.6	13.6	72	6.3	2	5	248	0.00	30.137 
01:50	13.6	13.6	13.6	72	6.3	1	4	292	0.00	30.137 
01:55	13.6	13.6	13.6	72	6.3	2	6	248	0.00	30.137 
02:00	13.6	13.6	13.6	72	6.3	1	4	248	0.00	30.140 
02:05	13.5	13.5	13.5	73	6.5	1	7	248	0.00	30.140 
02:10	13.5	13.5	13.5	73	6.5	1	4	248	0.00	30.140 
02:15	13.3	13.3	13.3	73	6.3	1	5	248	0.00	30.137 
02:20	13.3	13.3	13.3	73	6.3	1	5	248	0.00	30.137 
02:25	13.3	13.3	13.3	73	6.3	1	4	248	0.00	30.137 
02:30	13.3	13.3	13.3	73	6.3	1	5	248	0.00	30.141 
02:35	13.3	13.3	13.3	73	6.3	1	4	248	0.00	30.141 
02:40	13.3	13.3	13.3	73	6.3	1	4	248	0.00	30.141 
02:45	13.3	13.3	13.3	73	6.3	1	4	248	0.00	30.145 
02:50	13.3	13.3	13.3	73	6.3	1	2	248	0.00	30.145 
02:55	13.3	13.3	13.3	73	6.3	1	4	248	0.00	30.145 
03:00	13.5	13.5	13.5	73	6.5	1	5	248	0.00	30.145 
03:05	13.5	13.5	13.5	72	6.2	1	3	248	0.00	30.145 
03:10	13.5	13.5	13.5	72	6.2	1	4	248	0.00	30.145 
03:15	13.5	13.5	13.5	72	6.2	1	4	248	0.00	30.147 
03:20	13.5	13.5	13.5	71	5.9	2	6	248	0.00	30.147 
03:25	13.6	13.6	13.6	71	6.0	1	4	225	0.00	30.147 
03:30	13.6	13.6	13.6	71	6.0	2	5	248	0.00	30.146 
03:35	13.6	13.6	13.6	71	6.0	2	9	248	0.00	30.146 
03:40	13.6	13.6	13.6	71	6.0	2	6	248	0.00	30.146 
03:45	13.6	13.6	13.6	70	5.7	1	3	248	0.00	30.145 
03:50	13.6	13.6	13.6	70	5.7	1	4	248	0.00	30.145 
03:55	13.5	13.5	13.5	70	5.6	1	5	225	0.00	30.145 
04:00	13.5	13.5	13.5	71	5.9	1	5	248	0.00	30.143 
04:05	13.5	13.5	13.5	71	5.9	1	3	248	0.00	30.143 
04:10	13.5	13.5	13.5	71	5.9	0	3	248	0.00	30.143 
04:15	13.5	13.5	13.5	71	5.9	2	4	248	0.00	30.147 
04:20	13.5	13.5	13.5	71	5.9	2	4	248	0.00	30.147 
04:25	13.5	13.5	13.5	71	5.9	2	5	248	0.00	30.147 
04:30	13.5	13.5	13.5	71	5.9	2	4	248	0.00	30.134 
04:35	13.3	13.3	13.3	71	5.7	2	6	248	0.00	30.134 
04:40	13.3	13.3	13.3	72	6.0	2	5	248	0.00	30.134 
04:45	13.3	13.3	13.3	72	6.0	2	6	248	0.00	30.135 
04:50	13.5	13.5	13.5	72	6.2	2	5	248	0.00	30.135 
04:55	13.5	13.5	13.5	72	6.2	2	7	248	0.00	30.135 
05:00	13.5	13.5	13.5	72	6.2	2	5	248	0.00	30.134 
05:05	13.5	13.5	13.5	73	6.5	2	6	248	0.00	30.134 
05:10	13.6	13.6	13.6	73	6.6	2	9	248	0.00	30.134 
05:15	13.6	13.6	13.6	73	6.6	2	6	248	0.00	30.134 
05:20	13.8	13.8	13.8	73	6.8	3	7	248	0.00	30.134 
05:25	14.0	14.0	14.0	73	7.0	2	6	248	0.00	30.134 
05:30	14.0	14.0	14.0	73	7.0	2	5	248	0.00	30.133 
05:35	13.8	13.8	13.8	73	6.8	1	4	248	0.00	30.133 
05:40	13.6	13.6	13.6	73	6.6	2	4	248	0.00	30.133 
05:45	13.5	13.5	13.5	73	6.5	1	5	248	0.00	30.133 
05:50	13.3	13.3	13.3	74	6.6	1	4	248	0.00	30.133 
05:55	13.1	13.1	13.1	74	6.4	2	7	248	0.00	30.133 
06:00	12.9	12.9	12.9	74	6.2	1	4	248	0.00	30.132 
06:05	12.9	12.9	12.9	75	6.5	1	5	248	0.00	30.132 
06:10	12.9	12.9	12.9	75	6.5	1	4	248	0.00	30.132 
06:15	12.8	12.8	12.8	75	6.4	1	3	248	0.00	30.136 
06:20	12.6	12.6	12.6	75	6.2	1	4	248	0.00	30.136 
06:25	12.6	12.6	12.6	76	6.5	1	4	248	0.00	30.136 
06:30	12.8	12.8	12.8	76	6.7	2	5	248	0.00	30.136 
06:35	12.8	12.8	12.8	76	6.7	2	5	225	0.00	30.136 
06:40	12.8	12.8	12.8	76	6.7	1	4	248	0.00	30.136 
06:45	12.8	12.8	12.8	77	7.0	2	6	248	0.00	30.135 
06:50	12.8	12.8	12.8	77	7.0	1	4	225	0.00	30.135 
06:55	12.8	12.8	12.8	77	7.0	1	4	225	0.00	30.135 
07:00	12.6	12.6	12.6	77	6.8	1	3	225	0.00	30.132 
07:05	12.6	12.6	12.6	77	6.8	1	4	225	0.00	30.132 
07:10	12.6	12.6	12.6	77	6.8	1	4	225	0.00	30.132 
07:15	12.8	12.8	12.8	77	7.0	1	3	225	0.00	30.129 
07:20	12.8	12.8	12.8	77	7.0	1	4	225	0.00	30.129 
07:25	12.8	12.8	12.8	77	7.0	1	5	248	0.00	30.129 
07:30	12.8	12.8	12.8	77	7.0	1	4	248	0.00	30.129 
07:35	12.8	12.8	12.8	77	7.0	1	6	248	0.00	30.129 
07:40	12.8	12.8	12.8	77	7.0	1	5	225	0.00	30.129 
07:45	12.6	12.6	12.6	77	6.8	1	3	225	0.00	30.129 
07:50	12.6	12.6	12.6	78	7.1	1	5	248	0.00	30.129 
07:55	12.6	12.6	12.6	78	7.1	1	3	248	0.00	30.129 
08:00	12.4	12.4	12.4	78	6.9	1	7	248	0.00	30.132 
08:05	12.4	12.4	12.4	78	6.9	1	4	248	0.00	30.132 
08:10	12.3	12.3	12.3	78	6.8	1	4	248	0.00	30.132 
08:15	12.3	12.3	12.3	78	6.8	1	5	248	0.00	30.132 
08:20	12.3	12.3	12.3	79	7.1	1	5	248	0.00	30.132 
08:25	12.1	12.1	12.1	79	6.9	1	4	248	0.00	30.132 
08:30	12.1	12.1	12.1	79	6.9	0	3	225	0.00	30.137 
08:35	12.1	12.1	12.1	80	7.1	0	3	248	0.00	30.137 
08:40	12.3	12.3	12.3	80	7.3	1	5	248	0.00	30.137 
08:45	12.4	12.4	12.4	80	7.4	0	3	248	0.00	30.138 
08:50	12.8	12.8	12.8	81	8.1	1	5	248	0.00	30.138 
08:55	12.9	12.9	12.9	81	8.2	2	6	248	0.00	30.138 
09:00	13.3	13.3	13.3	81	8.6	1	4	248	0.00	30.136 
09:05	13.6	13.6	13.6	81	8.9	3	7	248	0.00	30.136 
09:10	13.8	13.8	13.8	81	9.1	2	7	248	0.00	30.136 
09:15	14.0	14.0	14.0	81	9.3	2	4	248	0.00	30.138 
09:20	14.1	14.1	14.1	81	9.4	2	5	248	0.00	30.138 
09:25	14.3	14.3	14.3	80	9.3	3	6	248	0.00	30.138 
09:30	14.4	14.4	14.4	80	9.4	2	6	248	0.00	30.137 
09:35	14.8	14.8	14.8	80	9.8	3	7	248	0.00	30.137 
09:40	14.9	14.9	14.9	80	9.9	2	5	248	0.00	30.137 
09:45	15.2	15.2	15.2	80	10.2	2	6	248	0.00	30.137 
09:50	15.6	15.6	15.6	79	10.3	2	5	248	0.00	30.137 
09:55	15.7	15.7	15.7	79	10.4	2	5	248	0.00	30.137 
10:00	15.9	15.9	15.9	78	10.3	2	6	248	0.00	30.134 
10:05	16.1	16.1	16.1	78	10.5	1	4	248	0.00	30.134 
10:10	16.2	16.2	16.2	78	10.6	2	4	248	0.00	30.134 
10:15	16.5	16.5	16.5	78	10.9	1	4	248	0.00	30.134 
10:20	16.9	16.9	16.9	77	11.0	2	5	248	0.00	30.134 
10:25	17.0	17.0	17.0	76	10.8	3	8	248	0.00	30.134 
10:30	17.2	17.2	17.2	76	11.0	3	6	248	0.00	30.134 
10:35	17.3	17.3	17.3	76	11.1	3	8	248	0.00	30.134 
10:40	17.7	17.7	17.7	76	11.4	2	5	248	0.00	30.134 
10:45	18.0	18.0	18.0	76	11.7	2	7	248	0.00	30.133 
10:50	18.4	18.4	18.4	75	11.8	3	7	248	0.00	30.133 
10:55	18.6	18.6	18.6	74	11.7	3	7	248	0.00	30.133 
11:00	18.9	18.9	18.9	74	12.0	2	6	248	0.00	30.132 
11:05	19.1	19.1	19.1	74	12.2	2	6	248	0.00	30.132 
11:10	19.1	19.1	19.1	73	11.9	3	11	248	0.00	30.132 
11:15	19.2	19.2	19.2	73	12.0	3	10	248	0.00	30.130 
11:20	19.5	19.5	19.5	73	12.3	2	5	248	0.00	30.130 
11:25	19.9	19.9	19.9	72	12.4	2	5	248	0.00	30.130 
11:30	20.0	20.0	20.0	72	12.5	3	9	248	0.00	30.122 
11:35	20.2	20.2	20.2	72	12.6	3	9	248	0.00	30.122 
11:40	20.5	20.5	20.5	71	12.6	2	7	248	0.00	30.122 
11:45	20.6	20.6	20.6	70	12.4	3	7	248	0.00	30.115 
11:50	21.0	21.0	21.0	70	12.8	2	4	248	0.00	30.115 
11:55	21.1	21.1	21.1	70	12.9	2	9	248	0.00	30.115 
12:00	21.3	21.3	21.3	69	12.7	2	6	248	0.00	30.108 
12:05	21.4	21.4	21.4	69	12.8	3	7	248	0.00	30.108 
12:10	21.6	21.6	21.6	69	13.0	3	10	248	0.00	30.108 
12:15	21.8	21.8	21.8	69	13.2	3	10	248	0.00	30.100 
12:20	22.2	22.2	22.2	69	13.6	2	6	248	0.00	30.100 
12:25	22.4	22.4	22.4	67	13.1	3	7	248	0.00	30.100 
12:30	22.4	22.4	22.4	67	13.1	3	7	248	0.00	30.097 
12:35	22.5	22.5	22.5	68	13.6	2	5	225	0.00	30.097 
12:40	22.9	22.9	22.9	68	13.9	2	4	248	0.00	30.097 
12:45	23.2	23.2	23.2	67	13.9	2	5	248	0.00	30.088 
12:50	23.2	23.2	23.2	66	13.6	3	8	248	0.00	30.088 
12:55	23.2	23.2	23.2	66	13.6	3	6	248	0.00	30.088 
13:00	23.2	23.2	23.2	67	13.9	3	5	248	0.00	30.087 
13:05	23.2	23.2	23.2	67	13.9	3	6	248	0.00	30.087 
13:10	23.0	23.0	23.0	67	13.7	3	9	270	0.00	30.087 
13:15	22.5	22.5	22.5	67	13.2	3	7	248	0.00	30.081 
13:20	22.4	22.4	22.4	67	13.1	3	10	248	0.00	30.081 
13:25	22.4	22.4	22.4	68	13.5	3	7	225	0.00	30.081 
13:30	22.5	22.5	22.5	67	13.2	3	9	248	0.00	30.079 
13:35	22.7	17.3	22.7	67	13.4	4	10	270	0.00	30.079 
13:40	22.7	22.7	22.7	67	13.4	2	5	248	0.00	30.079 
13:45	22.9	22.9	22.9	67	13.6	3	5	248	0.00	30.069 
13:50	22.9	17.6	22.9	66	13.3	4	11	248	0.00	30.069 
13:55	23.2	23.2	23.2	67	13.9	3	10	248	0.00	30.069 
14:00	23.2	23.2	23.2	66	13.6	3	9	270	0.00	30.069 
14:05	23.2	23.2	23.2	66	13.6	3	6	270	0.00	30.069 
14:10	23.2	23.2	23.2	67	13.9	3	7	248	0.00	30.069 
14:15	23.6	23.6	23.6	67	14.3	3	7	270	0.00	30.064 
14:20	23.6	23.6	23.6	65	13.6	3	7	248	0.00	30.064 
14:25	23.8	23.8	23.8	66	14.1	2	5	248	0.00	30.064 
14:30	23.9	23.9	23.9	65	13.9	3	9	248	0.00	30.062 
14:35	23.8	23.8	23.8	66	14.1	3	6	248	0.00	30.062 
14:40	23.8	23.8	23.8	66	14.1	2	6	248	0.00	30.062 
14:45	23.9	23.9	23.9	66	14.2	2	6	248	0.00	30.058 
14:50	24.1	24.1	24.1	65	14.1	3	11	292	0.00	30.058 
14:55	24.2	24.2	24.2	65	14.2	3	7	270	0.00	30.058 
15:00	24.1	24.1	24.1	65	14.1	3	7	248	0.00	30.053 
15:05	24.1	24.1	24.1	65	14.1	2	5	248	0.00	30.053 
15:10	24.1	24.1	24.1	65	14.1	3	7	248	0.00	30.053 
15:15	23.9	23.9	23.9	65	13.9	3	7	248	0.00	30.055 
15:20	23.9	23.9	23.9	65	13.9	2	5	248	0.00	30.055 
15:25	24.1	24.1	24.1	64	13.7	3	6	248	0.00	30.055 
15:30	24.1	19.0	24.1	64	13.7	4	14	248	0.00	30.060 
15:35	24.2	24.2	24.2	64	13.8	3	7	248	0.00	30.060 
15:40	24.2	24.2	24.2	64	13.8	3	6	248	0.00	30.060 
15:45	24.2	24.2	24.2	64	13.8	3	7	248	0.00	30.058 
15:50	23.9	18.7	23.9	64	13.5	4	10	270	0.00	30.058 
15:55	23.8	23.8	23.8	64	13.4	3	7	248	0.00	30.058 
16:00	23.6	23.6	23.6	65	13.6	2	4	248	0.00	30.060 
16:05	23.6	23.6	23.6	65	13.6	2	6	248	0.00	30.060 
16:10	23.5	23.5	23.5	65	13.5	3	6	248	0.00	30.060 
16:15	23.5	23.5	23.5	65	13.5	1	4	248	0.00	30.062 
16:20	23.3	23.3	23.3	65	13.3	2	5	248	0.00	30.062 
16:25	23.2	23.2	23.2	65	13.2	3	5	248	0.00	30.062 
16:30	23.0	23.0	23.0	65	13.0	3	7	248	0.00	30.063 
16:35	22.9	22.9	22.9	66	13.3	2	5	248	0.00	30.063 
16:40	22.7	22.7	22.7	66	13.1	2	6	248	0.00	30.063 
16:45	22.5	22.5	22.5	66	12.9	2	5	248	0.00	30.065 
16:50	22.2	22.2	22.2	65	12.3	3	9	248	0.00	30.065 
16:55	22.1	22.1	22.1	65	12.2	3	7	248	0.00	30.065 
17:00	21.9	21.9	21.9	65	12.0	3	9	270	0.00	30.065 
17:05	21.8	21.8	21.8	64	11.5	2	9	270	0.00	30.065 
17:10	21.4	21.4	21.4	64	11.1	3	7	248	0.00	30.065 
17:15	21.3	21.3	21.3	64	11.0	2	6	248	0.00	30.069 
17:20	21.0	21.0	21.0	65	11.1	2	6	248	0.00	30.069 
17:25	20.8	20.8	20.8	65	10.9	1	5	248	0.00	30.069 
17:30	20.6	20.6	20.6	65	10.7	1	4	248	0.00	30.072 
17:35	20.5	20.5	20.5	65	10.6	2	6	248	0.00	30.072 
17:40	20.5	20.5	20.5	65	10.6	3	11	248	0.00	30.072 
17:45	20.3	20.3	20.3	65	10.4	2	6	248	0.00	30.079 
17:50	20.2	20.2	20.2	65	10.3	1	4	248	0.00	30.079 
17:55	20.0	20.0	20.0	65	10.2	2	4	248	0.00	30.079 
18:00	19.9	19.9	19.9	65	10.1	2	5	248	0.00	30.075 
18:05	19.9	19.9	19.9	65	10.1	2	6	248	0.00	30.075 
18:10	19.7	19.7	19.7	65	9.9	2	7	248	0.00	30.075 
18:15	19.5	19.5	19.5	65	9.7	2	6	248	0.00	30.075 
18:20	19.4	19.4	19.4	66	9.9	2	5	248	0.00	30.075 
18:25	19.2	19.2	19.2	66	9.7	2	6	248	0.00	30.075 
18:30	19.2	19.2	19.2	66	9.7	2	6	270	0.00	30.077 
18:35	19.1	19.1	19.1	67	10.0	2	4	225	0.00	30.077 
18:40	19.1	19.1	19.1	67	10.0	3	9	248	0.00	30.077 
18:45	18.9	18.9	18.9	67	9.8	2	6	225	0.00	30.073 
18:50	18.8	18.8	18.8	68	10.0	2	5	248	0.00	30.073 
18:55	18.6	18.6	18.6	68	9.8	2	7	248	0.00	30.073 
19:00	18.4	18.4	18.4	68	9.6	2	4	248	0.00	30.074 
19:05	18.4	18.4	18.4	69	10.0	3	7	248	0.00	30.074 
19:10	18.4	18.4	18.4	69	10.0	1	5	270	0.00	30.074 
19:15	18.3	18.3	18.3	69	9.9	2	6	248	0.00	30.078 
19:20	18.3	18.3	18.3	69	9.9	3	11	248	0.00	30.078 
19:25	18.3	18.3	18.3	69	9.9	3	10	225	0.00	30.078 
19:30	18.3	18.3	18.3	70	10.2	3	9	248	0.00	30.079 
19:35	18.1	18.1	18.1	70	10.0	2	6	248	0.00	30.079 
19:40	18.1	18.1	18.1	71	10.3	2	8	248	0.00	30.079 
19:45	18.0	18.0	18.0	72	10.5	3	7	248	0.00	30.085 
19:50	18.0	18.0	18.0	72	10.5	3	5	248	0.00	30.085 
19:55	18.0	18.0	18.0	72	10.5	3	11	248	0.00	30.085 
20:00	18.0	18.0	18.0	73	10.8	3	7	248	0.00	30.079 
20:05	17.8	17.8	17.8	73	10.6	2	5	248	0.00	30.079 
20:10	17.8	17.8	17.8	73	10.6	3	6	248	0.00	30.079 
20:15	18.0	18.0	18.0	74	11.1	3	10	248	0.00	30.082 
20:20	18.0	18.0	18.0	74	11.1	3	6	248	0.00	30.082 
20:25	18.0	18.0	18.0	74	11.1	3	6	248	0.00	30.082 
20:30	18.0	18.0	18.0	74	11.1	3	7	248	0.00	30.082 
20:35	18.1	18.1	18.1	74	11.2	3	6	248	0.00	30.082 
20:40	18.1	18.1	18.1	75	11.5	3	9	248	0.00	30.082 
20:45	18.1	18.1	18.1	74	11.2	3	6	248	0.00	30.077 
20:50	18.0	18.0	18.0	74	11.1	2	5	248	0.00	30.077 
20:55	18.0	18.0	18.0	74	11.1	2	7	248	0.00	30.077 
21:00	18.0	18.0	18.0	74	11.1	2	4	248	0.00	30.079 
21:05	18.0	18.0	18.0	74	11.1	2	6	248	0.00	30.079 
21:10	18.0	18.0	18.0	73	10.8	2	5	248	0.00	30.079 
21:15	17.8	17.8	17.8	73	10.6	2	6	270	0.00	30.072 
21:20	17.8	17.8	17.8	73	10.6	1	4	270	0.00	30.072 
21:25	17.8	17.8	17.8	73	10.6	1	3	248	0.00	30.072 
21:30	17.8	17.8	17.8	73	10.6	1	4	248	0.00	30.071 
21:35	17.7	17.7	17.7	73	10.5	1	3	248	0.00	30.071 
21:40	17.7	17.7	17.7	74	10.8	1	4	248	0.00	30.071 
21:45	17.7	17.7	17.7	74	10.8	1	5	248	0.00	30.069 
21:50	17.7	17.7	17.7	74	10.8	1	5	248	0.00	30.069 
21:55	17.7	17.7	17.7	74	10.8	2	5	270	0.00	30.069 
22:00	17.8	17.8	17.8	73	10.6	2	5	248	0.00	30.070 
22:05	17.8	17.8	17.8	73	10.6	2	5	248	0.00	30.070 
22:10	17.8	17.8	17.8	73	10.6	2	5	248	0.00	30.070 
22:15	17.8	17.8	17.8	73	10.6	1	4	248	0.00	30.067 
22:20	17.8	17.8	17.8	73	10.6	1	4	248	0.00	30.067 
22:25	17.8	17.8	17.8	74	10.9	1	4	248	0.00	30.067 
22:30	17.7	17.7	17.7	74	10.8	1	3	248	0.00	30.066 
22:35	17.7	17.7	17.7	75	11.1	0	2	248	0.00	30.066 
22:40	17.5	17.5	17.5	75	11.0	0	2	248	0.00	30.066 
22:45	17.3	17.3	17.3	76	11.1	0	2	248	0.00	30.067 
22:50	17.2	17.2	17.2	76	11.0	0	1	248	0.00	30.067 
22:55	17.0	17.0	17.0	77	11.1	0	1	248	0.00	30.067 
23:00	16.9	16.9	16.9	77	11.0	0	1	248	0.00	30.068 
23:05	16.7	16.7	16.7	77	10.8	0	1	248	0.00	30.068 
23:10	16.4	16.4	16.4	77	10.5	0	0	---	0.00	30.068 
23:15	16.2	16.2	16.2	78	10.6	0	0	---	0.00	30.077 
23:20	16.1	16.1	16.1	79	10.8	0	1	248	0.00	30.077 
23:25	16.2	16.2	16.2	80	11.1	0	2	248	0.00	30.077 
23:30	16.2	16.2	16.2	80	11.1	0	1	248	0.00	30.081 
23:35	16.2	16.2	16.2	80	11.1	0	2	248	0.00	30.081 
23:40	16.2	16.2	16.2	80	11.1	0	1	248	0.00	30.081 
23:45	16.2	16.2	16.2	80	11.1	0	1	248	0.00	30.081 
23:50	16.1	16.1	16.1	81	11.3	0	2	248	0.00	30.081 
23:55	15.9	15.9	15.9	81	11.1	0	1	248	0.00	30.081 

CoCoRaHS
IN-AL-39
A2 Web Hosting
Creative Commons License
GoDaddy
search engine by freefind advanced

loaded 2018-11-14 04:07:27 • last modified 2010-11-18 10:43:29
Privacy PolicyDisclaimer
• wx.awcolley.com is powered by PmWiki v.2002016 •
• all content (unless otherwise noted) © 2018 A W Colley